Johnson, Arizona
Current Conditions -  °F | °C
As of 3:55 PM on Friday 19 Dec 2014 (Local Time) from KFHU Reporting Station
Few Clouds Few Clouds  
Wind Chill: 54°   Ceiling: Unl
Heat Index: 54°   Visibility: 10mi
Dew Point: 30°   Wind: 5mph
Humidity: 41%   Direction: 110°ESE
Pressure: 30.13"   Gusts: NA
Location:  32.0129°N, 110.105°W
Report Text: KFHU 192255Z 11004KT 10SM FEW050 FEW230 12/M01 A3013 RMK SLP194
Loading
Personal Weather Stations






























Interactive Weather Map New forecast layout! Learn more

10-Day Weather Forecast

Advertisements
Track Severe Weather on mobile